sensor_id;sensor_type;location;lat;lon;timestamp;temperature;humidity
2825;DHT22;1420;51.324;12.344;2023-04-03T00:00:47;2.10;99.90
2825;DHT22;1420;51.324;12.344;2023-04-03T00:03:15;2.00;99.90
2825;DHT22;1420;51.324;12.344;2023-04-03T00:05:42;2.10;99.90
2825;DHT22;1420;51.324;12.344;2023-04-03T00:08:09;2.10;99.90
2825;DHT22;1420;51.324;12.344;2023-04-03T00:10:36;2.00;99.90
2825;DHT22;1420;51.324;12.344;2023-04-03T00:13:04;2.00;99.90
2825;DHT22;1420;51.324;12.344;2023-04-03T00:15:32;1.90;99.90
2825;DHT22;1420;51.324;12.344;2023-04-03T00:17:59;1.90;99.90
2825;DHT22;1420;51.324;12.344;2023-04-03T00:20:26;1.90;99.90
2825;DHT22;1420;51.324;12.344;2023-04-03T00:22:53;1.90;99.90
2825;DHT22;1420;51.324;12.344;2023-04-03T00:25:20;1.90;99.90
2825;DHT22;1420;51.324;12.344;2023-04-03T00:27:47;1.90;99.90
2825;DHT22;1420;51.324;12.344;2023-04-03T00:30:16;1.80;99.90
2825;DHT22;1420;51.324;12.344;2023-04-03T00:32:43;1.80;99.90
2825;DHT22;1420;51.324;12.344;2023-04-03T00:35:10;1.80;99.90
2825;DHT22;1420;51.324;12.344;2023-04-03T00:37:37;1.70;99.90
2825;DHT22;1420;51.324;12.344;2023-04-03T00:40:06;1.70;99.90
2825;DHT22;1420;51.324;12.344;2023-04-03T00:42:33;1.60;99.90
2825;DHT22;1420;51.324;12.344;2023-04-03T00:45:23;1.70;99.90
2825;DHT22;1420;51.324;12.344;2023-04-03T00:47:48;1.70;99.90
2825;DHT22;1420;51.324;12.344;2023-04-03T00:50:16;1.60;99.90
2825;DHT22;1420;51.324;12.344;2023-04-03T00:52:43;1.60;99.90
2825;DHT22;1420;51.324;12.344;2023-04-03T00:55:10;1.50;99.90
2825;DHT22;1420;51.324;12.344;2023-04-03T00:57:37;1.40;99.90
2825;DHT22;1420;51.324;12.344;2023-04-03T01:00:06;1.40;99.90
2825;DHT22;1420;51.324;12.344;2023-04-03T01:02:32;1.40;99.90
2825;DHT22;1420;51.324;12.344;2023-04-03T01:05:00;1.30;99.90
2825;DHT22;1420;51.324;12.344;2023-04-03T01:07:29;1.30;99.90
2825;DHT22;1420;51.324;12.344;2023-04-03T01:09:57;1.30;99.90
2825;DHT22;1420;51.324;12.344;2023-04-03T01:12:24;1.20;99.90
2825;DHT22;1420;51.324;12.344;2023-04-03T01:14:53;1.20;99.90
2825;DHT22;1420;51.324;12.344;2023-04-03T01:17:33;1.10;99.90
2825;DHT22;1420;51.324;12.344;2023-04-03T01:22:43;0.90;99.90
2825;DHT22;1420;51.324;12.344;2023-04-03T01:25:07;1.00;99.90
2825;DHT22;1420;51.324;12.344;2023-04-03T01:27:34;1.00;99.90
2825;DHT22;1420;51.324;12.344;2023-04-03T01:30:01;1.00;99.90
2825;DHT22;1420;51.324;12.344;2023-04-03T01:32:28;0.90;99.90
2825;DHT22;1420;51.324;12.344;2023-04-03T01:34:55;0.90;99.90
2825;DHT22;1420;51.324;12.344;2023-04-03T01:37:23;0.80;99.90
2825;DHT22;1420;51.324;12.344;2023-04-03T01:39:50;0.80;99.90
2825;DHT22;1420;51.324;12.344;2023-04-03T01:42:17;0.80;99.90
2825;DHT22;1420;51.324;12.344;2023-04-03T01:44:45;0.60;99.90
2825;DHT22;1420;51.324;12.344;2023-04-03T01:47:12;0.60;99.90
2825;DHT22;1420;51.324;12.344;2023-04-03T01:49:39;0.70;99.90
2825;DHT22;1420;51.324;12.344;2023-04-03T01:52:07;0.70;99.90
2825;DHT22;1420;51.324;12.344;2023-04-03T01:54:35;0.60;99.90
2825;DHT22;1420;51.324;12.344;2023-04-03T01:57:02;0.50;99.90
2825;DHT22;1420;51.324;12.344;2023-04-03T01:59:29;0.50;99.90
2825;DHT22;1420;51.324;12.344;2023-04-03T02:01:56;0.60;99.90
2825;DHT22;1420;51.324;12.344;2023-04-03T02:04:23;0.50;99.90
2825;DHT22;1420;51.324;12.344;2023-04-03T02:06:51;0.50;99.90
2825;DHT22;1420;51.324;12.344;2023-04-03T02:09:18;0.50;99.90
2825;DHT22;1420;51.324;12.344;2023-04-03T02:11:45;0.50;99.90
2825;DHT22;1420;51.324;12.344;2023-04-03T02:14:13;0.50;99.90
2825;DHT22;1420;51.324;12.344;2023-04-03T02:16:40;0.40;99.90
2825;DHT22;1420;51.324;12.344;2023-04-03T02:19:08;0.50;99.90
2825;DHT22;1420;51.324;12.344;2023-04-03T02:21:35;0.50;99.90
2825;DHT22;1420;51.324;12.344;2023-04-03T02:24:02;0.60;99.90
2825;DHT22;1420;51.324;12.344;2023-04-03T02:26:29;0.40;99.90
2825;DHT22;1420;51.324;12.344;2023-04-03T02:28:56;0.40;99.90
2825;DHT22;1420;51.324;12.344;2023-04-03T02:31:24;0.40;99.90
2825;DHT22;1420;51.324;12.344;2023-04-03T02:33:52;0.40;99.90
2825;DHT22;1420;51.324;12.344;2023-04-03T02:36:20;0.30;99.90
2825;DHT22;1420;51.324;12.344;2023-04-03T02:38:48;0.30;99.90
2825;DHT22;1420;51.324;12.344;2023-04-03T02:41:15;0.40;99.90
2825;DHT22;1420;51.324;12.344;2023-04-03T02:43:42;0.30;99.90
2825;DHT22;1420;51.324;12.344;2023-04-03T02:46:10;0.40;99.90
2825;DHT22;1420;51.324;12.344;2023-04-03T02:48:38;0.30;99.90
2825;DHT22;1420;51.324;12.344;2023-04-03T02:51:05;0.20;99.90
2825;DHT22;1420;51.324;12.344;2023-04-03T02:53:32;0.30;99.90
2825;DHT22;1420;51.324;12.344;2023-04-03T02:56:00;0.20;99.90
2825;DHT22;1420;51.324;12.344;2023-04-03T02:58:27;0.10;99.90
2825;DHT22;1420;51.324;12.344;2023-04-03T03:00:54;0.10;99.90
2825;DHT22;1420;51.324;12.344;2023-04-03T03:03:22;0.10;99.90
2825;DHT22;1420;51.324;12.344;2023-04-03T03:05:50;-0.10;99.90
2825;DHT22;1420;51.324;12.344;2023-04-03T03:08:17;-0.10;99.90
2825;DHT22;1420;51.324;12.344;2023-04-03T03:10:44;-0.10;99.90
2825;DHT22;1420;51.324;12.344;2023-04-03T03:13:12;-0.10;99.90
2825;DHT22;1420;51.324;12.344;2023-04-03T03:15:40;-0.20;99.90
2825;DHT22;1420;51.324;12.344;2023-04-03T03:18:07;-0.20;99.90
2825;DHT22;1420;51.324;12.344;2023-04-03T03:20:34;-0.30;99.90
2825;DHT22;1420;51.324;12.344;2023-04-03T03:23:01;-0.20;99.90
2825;DHT22;1420;51.324;12.344;2023-04-03T03:25:29;-0.30;99.90
2825;DHT22;1420;51.324;12.344;2023-04-03T03:27:57;-0.30;99.90
2825;DHT22;1420;51.324;12.344;2023-04-03T03:30:24;-0.30;99.90
2825;DHT22;1420;51.324;12.344;2023-04-03T03:32:53;-0.30;99.90
2825;DHT22;1420;51.324;12.344;2023-04-03T03:35:20;-0.30;99.90
2825;DHT22;1420;51.324;12.344;2023-04-03T03:37:47;-0.40;99.90
2825;DHT22;1420;51.324;12.344;2023-04-03T03:40:14;-0.40;99.90
2825;DHT22;1420;51.324;12.344;2023-04-03T03:42:41;-0.50;99.90
2825;DHT22;1420;51.324;12.344;2023-04-03T03:45:09;-0.40;99.90
2825;DHT22;1420;51.324;12.344;2023-04-03T03:47:36;-0.50;99.90
2825;DHT22;1420;51.324;12.344;2023-04-03T03:50:04;-0.50;99.90
2825;DHT22;1420;51.324;12.344;2023-04-03T03:52:32;-0.60;99.90
2825;DHT22;1420;51.324;12.344;2023-04-03T03:55:00;-0.60;99.90
2825;DHT22;1420;51.324;12.344;2023-04-03T03:57:27;-0.60;99.90
2825;DHT22;1420;51.324;12.344;2023-04-03T03:59:55;-0.60;99.90
2825;DHT22;1420;51.324;12.344;2023-04-03T04:02:22;-0.50;99.90
2825;DHT22;1420;51.324;12.344;2023-04-03T04:04:49;-0.60;99.90
2825;DHT22;1420;51.324;12.344;2023-04-03T04:07:17;-0.60;99.90
2825;DHT22;1420;51.324;12.344;2023-04-03T04:09:44;-0.70;99.90
2825;DHT22;1420;51.324;12.344;2023-04-03T04:12:12;-0.60;99.90
2825;DHT22;1420;51.324;12.344;2023-04-03T04:14:39;-0.70;99.90
2825;DHT22;1420;51.324;12.344;2023-04-03T04:17:07;-0.80;99.90
2825;DHT22;1420;51.324;12.344;2023-04-03T04:19:34;-0.80;99.90
2825;DHT22;1420;51.324;12.344;2023-04-03T04:22:01;-0.70;99.90
2825;DHT22;1420;51.324;12.344;2023-04-03T04:24:28;-0.80;99.90
2825;DHT22;1420;51.324;12.344;2023-04-03T04:26:56;-0.80;99.90
2825;DHT22;1420;51.324;12.344;2023-04-03T04:29:23;-0.80;99.90
2825;DHT22;1420;51.324;12.344;2023-04-03T04:31:50;-0.80;99.90
2825;DHT22;1420;51.324;12.344;2023-04-03T04:34:17;-0.80;99.90
2825;DHT22;1420;51.324;12.344;2023-04-03T04:36:44;-0.80;99.90
2825;DHT22;1420;51.324;12.344;2023-04-03T04:39:12;-0.80;99.90
2825;DHT22;1420;51.324;12.344;2023-04-03T04:41:40;-0.70;99.90
2825;DHT22;1420;51.324;12.344;2023-04-03T04:44:08;-0.80;99.90
2825;DHT22;1420;51.324;12.344;2023-04-03T04:46:35;-0.90;99.90
2825;DHT22;1420;51.324;12.344;2023-04-03T04:49:03;-0.80;99.90
2825;DHT22;1420;51.324;12.344;2023-04-03T04:51:30;-0.80;99.90
2825;DHT22;1420;51.324;12.344;2023-04-03T04:53:57;-0.70;99.90
2825;DHT22;1420;51.324;12.344;2023-04-03T04:56:25;-0.80;99.90
2825;DHT22;1420;51.324;12.344;2023-04-03T04:58:53;-0.70;99.90
2825;DHT22;1420;51.324;12.344;2023-04-03T05:01:20;-0.80;99.90
2825;DHT22;1420;51.324;12.344;2023-04-03T05:03:48;-0.70;99.90
2825;DHT22;1420;51.324;12.344;2023-04-03T05:06:15;-0.70;99.90
2825;DHT22;1420;51.324;12.344;2023-04-03T05:08:43;-0.70;99.90
2825;DHT22;1420;51.324;12.344;2023-04-03T05:11:10;-0.80;99.90
2825;DHT22;1420;51.324;12.344;2023-04-03T05:13:37;-0.70;99.90
2825;DHT22;1420;51.324;12.344;2023-04-03T05:16:04;-0.70;99.90
2825;DHT22;1420;51.324;12.344;2023-04-03T05:18:32;-0.60;99.90
2825;DHT22;1420;51.324;12.344;2023-04-03T05:21:00;-0.70;99.90
2825;DHT22;1420;51.324;12.344;2023-04-03T05:23:27;-0.70;99.90
2825;DHT22;1420;51.324;12.344;2023-04-03T05:25:54;-0.60;99.90
2825;DHT22;1420;51.324;12.344;2023-04-03T05:28:22;-0.60;99.90
2825;DHT22;1420;51.324;12.344;2023-04-03T05:30:54;-0.60;99.90
2825;DHT22;1420;51.324;12.344;2023-04-03T05:33:21;0.60;99.90
2825;DHT22;1420;51.324;12.344;2023-04-03T05:35:49;2.60;99.90
2825;DHT22;1420;51.324;12.344;2023-04-03T05:38:17;1.70;99.90
2825;DHT22;1420;51.324;12.344;2023-04-03T05:40:44;1.60;99.90
2825;DHT22;1420;51.324;12.344;2023-04-03T05:43:11;1.40;99.90
2825;DHT22;1420;51.324;12.344;2023-04-03T05:45:39;1.30;99.90
2825;DHT22;1420;51.324;12.344;2023-04-03T05:48:06;1.40;99.90
2825;DHT22;1420;51.324;12.344;2023-04-03T05:50:33;1.80;99.90
2825;DHT22;1420;51.324;12.344;2023-04-03T05:53:01;3.00;99.90
2825;DHT22;1420;51.324;12.344;2023-04-03T05:55:29;3.20;99.90
2825;DHT22;1420;51.324;12.344;2023-04-03T05:57:57;3.10;99.90
2825;DHT22;1420;51.324;12.344;2023-04-03T06:00:25;2.30;99.90
2825;DHT22;1420;51.324;12.344;2023-04-03T06:02:53;2.60;99.90
2825;DHT22;1420;51.324;12.344;2023-04-03T06:05:20;2.60;99.90
2825;DHT22;1420;51.324;12.344;2023-04-03T06:07:47;2.80;99.90
2825;DHT22;1420;51.324;12.344;2023-04-03T06:10:14;3.10;99.90
2825;DHT22;1420;51.324;12.344;2023-04-03T06:12:42;3.00;99.90
2825;DHT22;1420;51.324;12.344;2023-04-03T06:15:09;2.90;99.90
2825;DHT22;1420;51.324;12.344;2023-04-03T06:17:37;3.60;99.90
2825;DHT22;1420;51.324;12.344;2023-04-03T06:20:05;3.30;99.90
2825;DHT22;1420;51.324;12.344;2023-04-03T06:22:33;3.20;99.90
2825;DHT22;1420;51.324;12.344;2023-04-03T06:25:00;3.30;99.90
2825;DHT22;1420;51.324;12.344;2023-04-03T06:27:28;3.40;99.90
2825;DHT22;1420;51.324;12.344;2023-04-03T06:29:56;4.00;99.90
2825;DHT22;1420;51.324;12.344;2023-04-03T06:32:24;4.10;99.90
2825;DHT22;1420;51.324;12.344;2023-04-03T06:34:52;3.70;99.90
2825;DHT22;1420;51.324;12.344;2023-04-03T06:37:20;3.60;99.90
2825;DHT22;1420;51.324;12.344;2023-04-03T06:39:47;3.50;99.90
2825;DHT22;1420;51.324;12.344;2023-04-03T06:42:14;3.70;99.90
2825;DHT22;1420;51.324;12.344;2023-04-03T06:44:41;3.20;99.90
2825;DHT22;1420;51.324;12.344;2023-04-03T06:47:10;3.30;99.90
2825;DHT22;1420;51.324;12.344;2023-04-03T06:49:36;3.30;99.90
2825;DHT22;1420;51.324;12.344;2023-04-03T06:52:03;3.30;99.90
2825;DHT22;1420;51.324;12.344;2023-04-03T06:54:31;3.60;99.90
2825;DHT22;1420;51.324;12.344;2023-04-03T06:56:59;3.90;99.90
2825;DHT22;1420;51.324;12.344;2023-04-03T06:59:27;3.70;99.90
2825;DHT22;1420;51.324;12.344;2023-04-03T07:01:54;3.70;99.90
2825;DHT22;1420;51.324;12.344;2023-04-03T07:04:22;3.50;99.90
2825;DHT22;1420;51.324;12.344;2023-04-03T07:06:49;3.60;99.90
2825;DHT22;1420;51.324;12.344;2023-04-03T07:09:16;3.80;99.90
2825;DHT22;1420;51.324;12.344;2023-04-03T07:11:43;4.00;99.90
2825;DHT22;1420;51.324;12.344;2023-04-03T07:14:11;3.80;99.90
2825;DHT22;1420;51.324;12.344;2023-04-03T07:16:38;4.30;99.90
2825;DHT22;1420;51.324;12.344;2023-04-03T07:19:06;4.20;99.90
2825;DHT22;1420;51.324;12.344;2023-04-03T07:21:34;4.10;99.90
2825;DHT22;1420;51.324;12.344;2023-04-03T07:24:01;4.40;98.80
2825;DHT22;1420;51.324;12.344;2023-04-03T07:26:29;4.10;98.80
2825;DHT22;1420;51.324;12.344;2023-04-03T07:28:56;4.50;97.30
2825;DHT22;1420;51.324;12.344;2023-04-03T07:31:23;4.90;95.80
2825;DHT22;1420;51.324;12.344;2023-04-03T07:33:50;5.10;94.30
2825;DHT22;1420;51.324;12.344;2023-04-03T07:36:19;5.40;94.30
2825;DHT22;1420;51.324;12.344;2023-04-03T07:38:45;4.70;91.10
2825;DHT22;1420;51.324;12.344;2023-04-03T07:41:14;4.90;91.60
2825;DHT22;1420;51.324;12.344;2023-04-03T07:43:41;4.60;91.30
2825;DHT22;1420;51.324;12.344;2023-04-03T07:46:08;4.50;91.40
2825;DHT22;1420;51.324;12.344;2023-04-03T07:48:35;4.60;92.30
2825;DHT22;1420;51.324;12.344;2023-04-03T07:51:03;4.30;91.70
2825;DHT22;1420;51.324;12.344;2023-04-03T07:53:29;4.70;90.40
2825;DHT22;1420;51.324;12.344;2023-04-03T07:55:57;4.40;91.50
2825;DHT22;1420;51.324;12.344;2023-04-03T07:58:24;4.00;93.40
2825;DHT22;1420;51.324;12.344;2023-04-03T08:00:51;4.10;92.80
2825;DHT22;1420;51.324;12.344;2023-04-03T08:03:19;4.50;91.60
2825;DHT22;1420;51.324;12.344;2023-04-03T08:05:47;4.70;91.70
2825;DHT22;1420;51.324;12.344;2023-04-03T08:08:16;4.70;91.60
2825;DHT22;1420;51.324;12.344;2023-04-03T08:10:41;5.00;90.80
2825;DHT22;1420;51.324;12.344;2023-04-03T08:13:09;5.60;89.10
2825;DHT22;1420;51.324;12.344;2023-04-03T08:15:36;5.80;86.50
2825;DHT22;1420;51.324;12.344;2023-04-03T08:18:04;5.60;81.90
2825;DHT22;1420;51.324;12.344;2023-04-03T08:20:31;5.60;81.80
2825;DHT22;1420;51.324;12.344;2023-04-03T08:22:58;5.60;80.60
2825;DHT22;1420;51.324;12.344;2023-04-03T08:25:25;5.80;79.30
2825;DHT22;1420;51.324;12.344;2023-04-03T08:27:53;5.60;81.60
2825;DHT22;1420;51.324;12.344;2023-04-03T08:30:20;4.90;80.20
2825;DHT22;1420;51.324;12.344;2023-04-03T08:32:48;6.30;75.20
2825;DHT22;1420;51.324;12.344;2023-04-03T08:35:16;5.60;77.90
2825;DHT22;1420;51.324;12.344;2023-04-03T08:37:43;5.50;77.70
2825;DHT22;1420;51.324;12.344;2023-04-03T08:40:13;5.80;79.20
2825;DHT22;1420;51.324;12.344;2023-04-03T08:45:16;6.20;74.30
2825;DHT22;1420;51.324;12.344;2023-04-03T08:47:45;5.50;73.20
2825;DHT22;1420;51.324;12.344;2023-04-03T08:50:16;5.70;75.50
2825;DHT22;1420;51.324;12.344;2023-04-03T08:52:45;5.50;76.30
2825;DHT22;1420;51.324;12.344;2023-04-03T08:55:23;5.70;77.40
2825;DHT22;1420;51.324;12.344;2023-04-03T08:57:50;5.70;77.30
2825;DHT22;1420;51.324;12.344;2023-04-03T09:00:19;6.00;75.80
2825;DHT22;1420;51.324;12.344;2023-04-03T09:02:49;4.40;75.80
2825;DHT22;1420;51.324;12.344;2023-04-03T09:05:20;4.40;75.70
2825;DHT22;1420;51.324;12.344;2023-04-03T09:08:04;4.10;78.10
2825;DHT22;1420;51.324;12.344;2023-04-03T09:10:28;3.60;77.50
2825;DHT22;1420;51.324;12.344;2023-04-03T09:13:01;3.70;77.30
2825;DHT22;1420;51.324;12.344;2023-04-03T09:15:27;3.60;77.00
2825;DHT22;1420;51.324;12.344;2023-04-03T09:18:03;4.40;71.70
2825;DHT22;1420;51.324;12.344;2023-04-03T09:20:39;4.40;71.70
2825;DHT22;1420;51.324;12.344;2023-04-03T09:25:38;5.10;69.40
2825;DHT22;1420;51.324;12.344;2023-04-03T09:28:05;5.40;67.20
2825;DHT22;1420;51.324;12.344;2023-04-03T09:30:32;5.70;62.40
2825;DHT22;1420;51.324;12.344;2023-04-03T09:33:00;6.30;63.50
2825;DHT22;1420;51.324;12.344;2023-04-03T09:35:29;5.90;66.20
2825;DHT22;1420;51.324;12.344;2023-04-03T09:38:17;5.80;66.00
2825;DHT22;1420;51.324;12.344;2023-04-03T09:40:43;6.10;59.70
2825;DHT22;1420;51.324;12.344;2023-04-03T09:43:31;6.20;60.60
2825;DHT22;1420;51.324;12.344;2023-04-03T09:48:37;6.30;62.90
2825;DHT22;1420;51.324;12.344;2023-04-03T09:51:08;6.70;61.90
2825;DHT22;1420;51.324;12.344;2023-04-03T09:53:35;6.60;61.70
2825;DHT22;1420;51.324;12.344;2023-04-03T09:56:02;6.70;52.90
2825;DHT22;1420;51.324;12.344;2023-04-03T09:58:31;6.40;55.60
2825;DHT22;1420;51.324;12.344;2023-04-03T10:00:59;6.40;55.60
2825;DHT22;1420;51.324;12.344;2023-04-03T10:03:28;6.60;57.30
2825;DHT22;1420;51.324;12.344;2023-04-03T10:05:54;6.80;56.60
2825;DHT22;1420;51.324;12.344;2023-04-03T10:08:23;7.10;54.50
2825;DHT22;1420;51.324;12.344;2023-04-03T10:11:05;6.80;54.30
2825;DHT22;1420;51.324;12.344;2023-04-03T10:13:18;6.70;54.30
2825;DHT22;1420;51.324;12.344;2023-04-03T10:15:51;6.50;53.70
2825;DHT22;1420;51.324;12.344;2023-04-03T10:20:52;6.50;54.20
2825;DHT22;1420;51.324;12.344;2023-04-03T10:23:24;6.60;54.80
2825;DHT22;1420;51.324;12.344;2023-04-03T10:25:55;6.30;52.80
2825;DHT22;1420;51.324;12.344;2023-04-03T10:28:29;5.70;53.00
2825;DHT22;1420;51.324;12.344;2023-04-03T10:30:58;5.40;55.20
2825;DHT22;1420;51.324;12.344;2023-04-03T10:41:39;6.30;54.00
2825;DHT22;1420;51.324;12.344;2023-04-03T10:44:14;6.40;54.70
2825;DHT22;1420;51.324;12.344;2023-04-03T10:46:43;6.60;53.70
2825;DHT22;1420;51.324;12.344;2023-04-03T10:49:16;6.70;51.50
2825;DHT22;1420;51.324;12.344;2023-04-03T10:51:43;6.70;51.40
2825;DHT22;1420;51.324;12.344;2023-04-03T10:54:11;7.00;51.50
2825;DHT22;1420;51.324;12.344;2023-04-03T10:56:47;6.90;50.80
2825;DHT22;1420;51.324;12.344;2023-04-03T11:01:48;6.80;52.30
2825;DHT22;1420;51.324;12.344;2023-04-03T11:04:14;6.90;53.40
2825;DHT22;1420;51.324;12.344;2023-04-03T11:06:49;7.20;52.40
2825;DHT22;1420;51.324;12.344;2023-04-03T11:09:22;6.70;50.10
2825;DHT22;1420;51.324;12.344;2023-04-03T11:11:47;6.70;50.60
2825;DHT22;1420;51.324;12.344;2023-04-03T11:14:31;6.80;52.50
2825;DHT22;1420;51.324;12.344;2023-04-03T11:17:23;7.60;51.60
2825;DHT22;1420;51.324;12.344;2023-04-03T11:22:41;6.70;49.90
2825;DHT22;1420;51.324;12.344;2023-04-03T11:25:25;6.00;52.10
2825;DHT22;1420;51.324;12.344;2023-04-03T11:27:55;5.50;52.10
2825;DHT22;1420;51.324;12.344;2023-04-03T11:30:25;6.00;52.00
2825;DHT22;1420;51.324;12.344;2023-04-03T11:33:28;5.70;53.30
2825;DHT22;1420;51.324;12.344;2023-04-03T11:35:35;5.70;52.60
2825;DHT22;1420;51.324;12.344;2023-04-03T11:38:02;5.70;51.80
2825;DHT22;1420;51.324;12.344;2023-04-03T11:40:31;6.20;51.20
2825;DHT22;1420;51.324;12.344;2023-04-03T11:45:55;6.20;51.90
2825;DHT22;1420;51.324;12.344;2023-04-03T11:48:43;6.50;51.50
2825;DHT22;1420;51.324;12.344;2023-04-03T11:54:34;6.00;52.10
2825;DHT22;1420;51.324;12.344;2023-04-03T11:56:37;5.80;52.60
2825;DHT22;1420;51.324;12.344;2023-04-03T11:59:22;5.50;53.40
2825;DHT22;1420;51.324;12.344;2023-04-03T12:01:53;5.40;53.20
2825;DHT22;1420;51.324;12.344;2023-04-03T12:04:21;5.50;51.40
2825;DHT22;1420;51.324;12.344;2023-04-03T12:07:12;5.60;51.50
2825;DHT22;1420;51.324;12.344;2023-04-03T12:09:57;5.90;51.80
2825;DHT22;1420;51.324;12.344;2023-04-03T12:12:32;5.90;51.40
2825;DHT22;1420;51.324;12.344;2023-04-03T12:17:37;5.50;54.20
2825;DHT22;1420;51.324;12.344;2023-04-03T12:20:40;5.30;53.20
2825;DHT22;1420;51.324;12.344;2023-04-03T12:22:31;5.40;53.20
2825;DHT22;1420;51.324;12.344;2023-04-03T12:24:58;5.30;52.50
2825;DHT22;1420;51.324;12.344;2023-04-03T12:27:28;6.00;51.00
2825;DHT22;1420;51.324;12.344;2023-04-03T12:30:14;5.40;52.70
2825;DHT22;1420;51.324;12.344;2023-04-03T12:32:58;5.40;52.60
2825;DHT22;1420;51.324;12.344;2023-04-03T12:35:39;5.20;54.50
2825;DHT22;1420;51.324;12.344;2023-04-03T12:38:15;5.20;54.70
2825;DHT22;1420;51.324;12.344;2023-04-03T12:41:06;5.40;55.00
2825;DHT22;1420;51.324;12.344;2023-04-03T12:43:47;5.30;52.90
2825;DHT22;1420;51.324;12.344;2023-04-03T12:46:13;5.30;52.90
2825;DHT22;1420;51.324;12.344;2023-04-03T12:48:58;5.40;53.60
2825;DHT22;1420;51.324;12.344;2023-04-03T12:51:30;5.10;53.20
2825;DHT22;1420;51.324;12.344;2023-04-03T12:53:57;5.20;53.70
2825;DHT22;1420;51.324;12.344;2023-04-03T12:56:29;5.00;54.80
2825;DHT22;1420;51.324;12.344;2023-04-03T12:58:51;5.00;55.90
2825;DHT22;1420;51.324;12.344;2023-04-03T13:01:22;4.80;55.20
2825;DHT22;1420;51.324;12.344;2023-04-03T13:03:52;4.90;56.00
2825;DHT22;1420;51.324;12.344;2023-04-03T13:06:21;5.10;55.50
2825;DHT22;1420;51.324;12.344;2023-04-03T13:08:49;5.00;55.30
2825;DHT22;1420;51.324;12.344;2023-04-03T13:11:15;5.20;53.50
2825;DHT22;1420;51.324;12.344;2023-04-03T13:13:58;5.10;52.90
2825;DHT22;1420;51.324;12.344;2023-04-03T13:16:25;5.20;53.10
2825;DHT22;1420;51.324;12.344;2023-04-03T13:18:53;5.30;52.30
2825;DHT22;1420;51.324;12.344;2023-04-03T13:21:21;5.10;53.40
2825;DHT22;1420;51.324;12.344;2023-04-03T13:23:48;5.40;55.50
2825;DHT22;1420;51.324;12.344;2023-04-03T13:26:16;5.20;55.70
2825;DHT22;1420;51.324;12.344;2023-04-03T13:28:42;5.10;55.60
2825;DHT22;1420;51.324;12.344;2023-04-03T13:31:27;5.40;54.80
2825;DHT22;1420;51.324;12.344;2023-04-03T13:33:56;5.30;54.80
2825;DHT22;1420;51.324;12.344;2023-04-03T13:36:24;5.20;54.90
2825;DHT22;1420;51.324;12.344;2023-04-03T13:39:04;5.10;54.10
2825;DHT22;1420;51.324;12.344;2023-04-03T13:41:35;5.40;53.80
2825;DHT22;1420;51.324;12.344;2023-04-03T13:46:40;5.40;52.60
2825;DHT22;1420;51.324;12.344;2023-04-03T13:49:18;5.00;53.00
2825;DHT22;1420;51.324;12.344;2023-04-03T13:51:44;5.10;52.90
2825;DHT22;1420;51.324;12.344;2023-04-03T13:54:17;5.20;52.30
2825;DHT22;1420;51.324;12.344;2023-04-03T13:56:40;5.30;51.90
2825;DHT22;1420;51.324;12.344;2023-04-03T13:59:25;5.30;51.90
2825;DHT22;1420;51.324;12.344;2023-04-03T14:02:10;5.20;52.10
2825;DHT22;1420;51.324;12.344;2023-04-03T14:04:44;5.20;52.10
2825;DHT22;1420;51.324;12.344;2023-04-03T14:07:01;5.30;52.20
2825;DHT22;1420;51.324;12.344;2023-04-03T14:09:29;5.00;53.30
2825;DHT22;1420;51.324;12.344;2023-04-03T14:11:59;4.90;53.20
2825;DHT22;1420;51.324;12.344;2023-04-03T14:14:27;5.00;55.90
2825;DHT22;1420;51.324;12.344;2023-04-03T14:16:54;4.90;55.80
2825;DHT22;1420;51.324;12.344;2023-04-03T14:19:23;5.00;55.90
2825;DHT22;1420;51.324;12.344;2023-04-03T14:21:50;4.80;56.00
2825;DHT22;1420;51.324;12.344;2023-04-03T14:24:18;4.80;55.30
2825;DHT22;1420;51.324;12.344;2023-04-03T14:26:45;4.80;55.20
2825;DHT22;1420;51.324;12.344;2023-04-03T14:29:12;4.50;55.10
2825;DHT22;1420;51.324;12.344;2023-04-03T14:31:40;4.60;55.10
2825;DHT22;1420;51.324;12.344;2023-04-03T14:34:06;4.60;55.00
2825;DHT22;1420;51.324;12.344;2023-04-03T14:36:34;4.50;54.50
2825;DHT22;1420;51.324;12.344;2023-04-03T14:39:02;4.60;54.60
2825;DHT22;1420;51.324;12.344;2023-04-03T14:41:28;4.60;54.60
2825;DHT22;1420;51.324;12.344;2023-04-03T14:43:55;4.50;54.80
2825;DHT22;1420;51.324;12.344;2023-04-03T14:46:33;4.50;55.80
2825;DHT22;1420;51.324;12.344;2023-04-03T14:48:59;4.50;55.80
2825;DHT22;1420;51.324;12.344;2023-04-03T14:51:26;4.50;55.20
2825;DHT22;1420;51.324;12.344;2023-04-03T14:53:54;4.60;54.10
2825;DHT22;1420;51.324;12.344;2023-04-03T14:56:23;4.50;54.00
2825;DHT22;1420;51.324;12.344;2023-04-03T14:58:49;4.50;54.10
2825;DHT22;1420;51.324;12.344;2023-04-03T15:01:17;4.50;53.60
2825;DHT22;1420;51.324;12.344;2023-04-03T15:03:44;4.40;53.50
2825;DHT22;1420;51.324;12.344;2023-04-03T15:06:12;4.50;54.20
2825;DHT22;1420;51.324;12.344;2023-04-03T15:08:38;4.50;54.60
2825;DHT22;1420;51.324;12.344;2023-04-03T15:11:06;4.60;54.50
2825;DHT22;1420;51.324;12.344;2023-04-03T15:13:34;4.50;54.60
2825;DHT22;1420;51.324;12.344;2023-04-03T15:16:01;4.50;54.60
2825;DHT22;1420;51.324;12.344;2023-04-03T15:18:29;4.60;55.20
2825;DHT22;1420;51.324;12.344;2023-04-03T15:20:57;4.60;54.10
2825;DHT22;1420;51.324;12.344;2023-04-03T15:23:24;4.40;53.60
2825;DHT22;1420;51.324;12.344;2023-04-03T15:25:52;4.40;54.10
2825;DHT22;1420;51.324;12.344;2023-04-03T15:28:23;4.40;53.80
2825;DHT22;1420;51.324;12.344;2023-04-03T15:30:49;4.40;53.70
2825;DHT22;1420;51.324;12.344;2023-04-03T15:33:16;4.30;54.00
2825;DHT22;1420;51.324;12.344;2023-04-03T15:35:43;4.30;54.20
2825;DHT22;1420;51.324;12.344;2023-04-03T15:38:11;4.40;53.60
2825;DHT22;1420;51.324;12.344;2023-04-03T15:40:39;4.40;53.50
2825;DHT22;1420;51.324;12.344;2023-04-03T15:43:06;4.30;54.00
2825;DHT22;1420;51.324;12.344;2023-04-03T15:45:33;4.10;54.40
2825;DHT22;1420;51.324;12.344;2023-04-03T15:48:01;4.20;54.60
2825;DHT22;1420;51.324;12.344;2023-04-03T15:50:29;4.10;54.40
2825;DHT22;1420;51.324;12.344;2023-04-03T15:52:56;4.10;54.30
2825;DHT22;1420;51.324;12.344;2023-04-03T15:55:24;4.10;54.50
2825;DHT22;1420;51.324;12.344;2023-04-03T15:57:51;4.20;55.00
2825;DHT22;1420;51.324;12.344;2023-04-03T16:00:19;4.00;54.10
2825;DHT22;1420;51.324;12.344;2023-04-03T16:02:46;3.90;54.00
2825;DHT22;1420;51.324;12.344;2023-04-03T16:05:13;4.00;54.90
2825;DHT22;1420;51.324;12.344;2023-04-03T16:07:40;4.00;54.50
2825;DHT22;1420;51.324;12.344;2023-04-03T16:10:08;4.00;52.90
2825;DHT22;1420;51.324;12.344;2023-04-03T16:12:36;3.90;52.80
2825;DHT22;1420;51.324;12.344;2023-04-03T16:15:03;3.90;53.50
2825;DHT22;1420;51.324;12.344;2023-04-03T16:17:31;4.00;53.90
2825;DHT22;1420;51.324;12.344;2023-04-03T16:19:57;4.00;53.90
2825;DHT22;1420;51.324;12.344;2023-04-03T16:22:25;4.10;54.20
2825;DHT22;1420;51.324;12.344;2023-04-03T16:24:53;4.00;54.20
2825;DHT22;1420;51.324;12.344;2023-04-03T16:27:21;3.90;54.30
2825;DHT22;1420;51.324;12.344;2023-04-03T16:29:48;3.90;54.30
2825;DHT22;1420;51.324;12.344;2023-04-03T16:32:15;4.00;55.00
2825;DHT22;1420;51.324;12.344;2023-04-03T16:34:42;3.90;55.00
2825;DHT22;1420;51.324;12.344;2023-04-03T16:37:09;4.00;55.80
2825;DHT22;1420;51.324;12.344;2023-04-03T16:39:37;4.00;55.40
2825;DHT22;1420;51.324;12.344;2023-04-03T16:42:04;3.90;55.70
2825;DHT22;1420;51.324;12.344;2023-04-03T16:44:32;3.90;56.40
2825;DHT22;1420;51.324;12.344;2023-04-03T16:46:59;3.80;56.20